Time;durP1;ratioP1;P1;durP2;ratioP2;P2;SDS_P1;SDS_P2;PMS_P1;PMS_P2;Temp;Humidity;BMP_temperature;BMP_pressure;BME280_temperature;BME280_humidity;BME280_pressure;Samples;Min_cycle;Max_cycle;Signal;HPM_P1;HPM_P2
2023/10/14 00:00:36;;;;;;;;;;;22.90;56.00;;;;;;1540103;75;1141;-61
2023/10/14 00:02:24;;;;;;;;;;;22.80;56.00;;;;;;1529834;75;1404;-61
2023/10/14 00:04:26;;;;;;;;;;;22.90;56.20;;;;;;1537304;75;762;-61
2023/10/14 00:06:29;;;;;;;;;;;22.80;55.90;;;;;;1539217;75;711;-61
2023/10/14 00:08:31;;;;;;;;;;;22.90;56.00;;;;;;1543539;75;790;-61
2023/10/14 00:10:35;;;;;;;;;;;22.90;56.20;;;;;;1541340;75;1912;-61
2023/10/14 00:12:38;;;;;;;;;;;22.90;56.10;;;;;;1544396;75;1278;-61
2023/10/14 00:14:43;;;;;;;;;;;22.80;56.10;;;;;;1542937;75;799;-62
2023/10/14 00:16:51;;;;;;;;;;;22.80;56.00;;;;;;1542737;75;746;-61
2023/10/14 00:18:55;;;;;;;;;;;22.90;56.20;;;;;;1547048;75;874;-61
2023/10/14 00:20:56;;;;;;;;;;;22.80;56.10;;;;;;1546463;75;1664;-62
2023/10/14 00:22:58;;;;;;;;;;;22.90;56.30;;;;;;1546518;75;722;-61
2023/10/14 00:25:01;;;;;;;;;;;22.90;56.40;;;;;;1546900;75;1563;-61
2023/10/14 00:27:07;;;;;;;;;;;22.90;56.30;;;;;;1551055;75;754;-61
2023/10/14 00:31:19;;;;;;;;;;;22.90;56.30;;;;;;1542233;75;1911;-61
2023/10/14 00:33:20;;;;;;;;;;;22.90;56.50;;;;;;1542245;75;755;-61
2023/10/14 00:35:24;;;;;;;;;;;22.90;56.60;;;;;;1545160;75;859;-61
2023/10/14 00:37:26;;;;;;;;;;;22.90;56.70;;;;;;1542549;75;746;-60
2023/10/14 00:39:28;;;;;;;;;;;22.90;56.70;;;;;;1546411;75;1645;-60
2023/10/14 00:41:30;;;;;;;;;;;22.90;56.60;;;;;;1550483;75;1149;-60
2023/10/14 00:43:33;;;;;;;;;;;22.90;56.80;;;;;;1545625;75;712;-60
2023/10/14 00:45:43;;;;;;;;;;;22.90;56.70;;;;;;1542077;75;715;-59
2023/10/14 00:47:44;;;;;;;;;;;22.90;56.90;;;;;;1541832;75;1727;-61
2023/10/14 00:49:52;;;;;;;;;;;22.90;56.90;;;;;;1546881;75;1925;-60
2023/10/14 00:51:51;;;;;;;;;;;22.90;57.00;;;;;;1541228;75;1550;-60
2023/10/14 00:53:53;;;;;;;;;;;22.90;56.80;;;;;;1540219;75;1555;-60
2023/10/14 00:55:55;;;;;;;;;;;22.90;57.00;;;;;;1544799;75;733;-60
2023/10/14 00:57:59;;;;;;;;;;;22.90;57.10;;;;;;1541041;75;896;-60
2023/10/14 01:00:00;;;;;;;;;;;22.90;57.40;;;;;;1542869;75;2111;-61
2023/10/14 01:02:02;;;;;;;;;;;22.90;57.10;;;;;;1541982;75;1121;-61
2023/10/14 01:04:53;;;;;;;;;;;22.90;57.10;;;;;;1537546;75;630;-60
2023/10/14 01:06:23;;;;;;;;;;;22.90;57.10;;;;;;1518736;75;1564;-61
2023/10/14 01:08:11;;;;;;;;;;;22.90;57.00;;;;;;1544027;75;1076;-61
2023/10/14 01:10:24;;;;;;;;;;;22.90;57.20;;;;;;1552554;74;1947;-60
2023/10/14 01:12:17;;;;;;;;;;;22.90;57.10;;;;;;1541015;75;1451;-61
2023/10/14 01:14:23;;;;;;;;;;;22.90;57.10;;;;;;1542933;75;796;-59
2023/10/14 01:16:24;;;;;;;;;;;22.90;57.10;;;;;;1547423;75;1623;-58
2023/10/14 01:18:26;;;;;;;;;;;22.90;57.30;;;;;;1545408;75;2047;-61
2023/10/14 01:20:37;;;;;;;;;;;22.90;57.20;;;;;;1537451;75;1329;-59
2023/10/14 01:22:31;;;;;;;;;;;22.90;57.40;;;;;;1541681;75;1640;-59
2023/10/14 01:24:39;;;;;;;;;;;22.90;57.40;;;;;;1543088;75;727;-59
2023/10/14 01:26:46;;;;;;;;;;;22.90;57.40;;;;;;1540336;75;952;-60
2023/10/14 01:28:45;;;;;;;;;;;22.90;57.40;;;;;;1542516;75;1713;-59
2023/10/14 01:30:45;;;;;;;;;;;22.90;57.60;;;;;;1540119;75;1918;-59
2023/10/14 01:34:57;;;;;;;;;;;22.90;57.40;;;;;;1543354;76;1530;-59
2023/10/14 01:36:56;;;;;;;;;;;22.90;57.60;;;;;;1538136;75;1473;-61
2023/10/14 01:38:58;;;;;;;;;;;22.90;57.50;;;;;;1548136;75;709;-59
2023/10/14 01:41:04;;;;;;;;;;;22.90;57.50;;;;;;1539804;75;1127;-59
2023/10/14 01:43:10;;;;;;;;;;;22.90;57.70;;;;;;1542765;75;1618;-60
2023/10/14 01:45:13;;;;;;;;;;;22.90;57.80;;;;;;1543655;75;685;-61
2023/10/14 01:47:17;;;;;;;;;;;22.90;57.80;;;;;;1541461;75;779;-59
2023/10/14 01:49:23;;;;;;;;;;;22.90;57.80;;;;;;1548128;75;1475;-59
2023/10/14 01:51:26;;;;;;;;;;;22.90;57.80;;;;;;1540933;75;1915;-58
2023/10/14 01:53:32;;;;;;;;;;;22.90;57.80;;;;;;1547964;75;739;-60
2023/10/14 01:55:32;;;;;;;;;;;22.90;57.80;;;;;;1539852;75;1312;-60
2023/10/14 01:57:36;;;;;;;;;;;22.90;57.80;;;;;;1543667;75;739;-59
2023/10/14 01:59:40;;;;;;;;;;;22.90;57.70;;;;;;1544428;75;726;-60
2023/10/14 02:01:41;;;;;;;;;;;22.90;57.80;;;;;;1550349;75;1765;-60
2023/10/14 02:03:44;;;;;;;;;;;22.90;58.00;;;;;;1547740;75;1521;-61
2023/10/14 02:05:46;;;;;;;;;;;22.90;57.90;;;;;;1546884;75;702;-60
2023/10/14 02:07:48;;;;;;;;;;;22.90;57.90;;;;;;1538028;75;756;-60
2023/10/14 02:09:55;;;;;;;;;;;22.90;57.90;;;;;;1546932;75;714;-60
2023/10/14 02:11:53;;;;;;;;;;;22.90;57.80;;;;;;1546116;75;1950;-61
2023/10/14 02:13:55;;;;;;;;;;;22.90;58.00;;;;;;1545569;75;697;-59
2023/10/14 02:15:59;;;;;;;;;;;22.90;58.00;;;;;;1543116;75;774;-58
2023/10/14 02:18:03;;;;;;;;;;;22.90;58.10;;;;;;1534950;76;1302;-58
2023/10/14 02:20:20;;;;;;;;;;;22.90;58.10;;;;;;1545748;75;780;-60
2023/10/14 02:22:16;;;;;;;;;;;22.90;58.20;;;;;;1542627;75;1666;-59
2023/10/14 02:24:18;;;;;;;;;;;22.90;58.20;;;;;;1544635;75;1488;-59
2023/10/14 02:26:30;;;;;;;;;;;22.90;58.10;;;;;;1543213;75;803;-60
2023/10/14 02:28:45;;;;;;;;;;;22.90;58.10;;;;;;1539954;75;1519;-61
2023/10/14 02:30:51;;;;;;;;;;;22.90;58.10;;;;;;1541702;75;1937;-60
2023/10/14 02:32:48;;;;;;;;;;;22.90;57.90;;;;;;1535449;75;1620;-61
2023/10/14 02:34:51;;;;;;;;;;;22.90;58.10;;;;;;1542932;75;683;-60
2023/10/14 02:36:53;;;;;;;;;;;22.90;58.20;;;;;;1546244;75;729;-59
2023/10/14 02:38:55;;;;;;;;;;;22.90;58.10;;;;;;1543769;75;728;-58
2023/10/14 02:40:57;;;;;;;;;;;22.90;58.10;;;;;;1541603;75;1053;-58
2023/10/14 02:43:00;;;;;;;;;;;22.90;58.20;;;;;;1544323;75;752;-58
2023/10/14 02:45:04;;;;;;;;;;;22.90;58.10;;;;;;1542973;75;1503;-59
2023/10/14 02:47:08;;;;;;;;;;;22.90;58.30;;;;;;1543044;75;1617;-58
2023/10/14 02:49:13;;;;;;;;;;;22.90;58.20;;;;;;1536487;75;1619;-59
2023/10/14 02:51:16;;;;;;;;;;;22.90;58.30;;;;;;1536696;75;1929;-58
2023/10/14 02:53:21;;;;;;;;;;;22.90;58.60;;;;;;1549017;75;1836;-58
2023/10/14 02:55:25;;;;;;;;;;;22.90;58.40;;;;;;1546481;75;1649;-58
2023/10/14 02:57:26;;;;;;;;;;;22.90;58.50;;;;;;1543683;75;1754;-57
2023/10/14 02:59:43;;;;;;;;;;;22.90;58.40;;;;;;1539300;75;1583;-60
2023/10/14 03:01:40;;;;;;;;;;;22.90;58.50;;;;;;1543550;75;1626;-58
2023/10/14 03:03:46;;;;;;;;;;;22.90;58.40;;;;;;1545440;75;748;-58
2023/10/14 03:05:52;;;;;;;;;;;22.90;58.60;;;;;;1542056;75;1636;-58
2023/10/14 03:07:54;;;;;;;;;;;22.90;58.60;;;;;;1545047;75;724;-58
2023/10/14 03:10:39;;;;;;;;;;;22.90;58.80;;;;;;1546586;75;799;-58
2023/10/14 03:12:02;;;;;;;;;;;22.90;58.70;;;;;;1527785;75;1951;-59
2023/10/14 03:14:07;;;;;;;;;;;22.90;58.70;;;;;;1544259;75;1599;-59
2023/10/14 03:16:09;;;;;;;;;;;22.90;58.70;;;;;;1541064;75;682;-59
2023/10/14 03:18:13;;;;;;;;;;;22.90;58.90;;;;;;1536969;76;1250;-59
2023/10/14 03:22:31;;;;;;;;;;;23.00;58.80;;;;;;1543141;75;853;-59
2023/10/14 03:24:38;;;;;;;;;;;22.90;58.80;;;;;;1543689;75;710;-58
2023/10/14 03:26:37;;;;;;;;;;;22.90;58.70;;;;;;1543015;75;1627;-59
2023/10/14 03:28:39;;;;;;;;;;;22.90;58.80;;;;;;1545741;75;1455;-60
2023/10/14 03:30:47;;;;;;;;;;;22.90;59.20;;;;;;1544945;75;1952;-59
2023/10/14 03:32:46;;;;;;;;;;;22.90;58.70;;;;;;1546614;75;1590;-58
2023/10/14 03:34:48;;;;;;;;;;;22.90;59.20;;;;;;1540926;75;730;-57
2023/10/14 03:36:56;;;;;;;;;;;22.90;59.10;;;;;;1542842;75;756;-58
2023/10/14 03:38:57;;;;;;;;;;;22.90;59.20;;;;;;1537936;75;1487;-59
2023/10/14 03:41:03;;;;;;;;;;;22.90;59.30;;;;;;1545043;75;1524;-60
2023/10/14 03:43:10;;;;;;;;;;;22.90;59.20;;;;;;1547119;75;761;-59
2023/10/14 03:45:20;;;;;;;;;;;23.00;58.90;;;;;;1547334;75;1493;-60
2023/10/14 03:47:18;;;;;;;;;;;22.90;59.20;;;;;;1541484;75;1613;-59
2023/10/14 03:49:22;;;;;;;;;;;22.90;59.40;;;;;;1544969;75;696;-59
2023/10/14 03:51:27;;;;;;;;;;;22.90;59.20;;;;;;1549301;74;1945;-60
2023/10/14 03:53:31;;;;;;;;;;;23.00;59.20;;;;;;1546070;75;720;-58
2023/10/14 03:55:33;;;;;;;;;;;22.90;59.30;;;;;;1542362;75;1523;-59
2023/10/14 03:57:37;;;;;;;;;;;22.90;59.20;;;;;;1543670;75;692;-60
2023/10/14 03:59:41;;;;;;;;;;;23.00;59.40;;;;;;1550262;75;669;-59
2023/10/14 04:03:51;;;;;;;;;;;23.00;59.40;;;;;;1555724;75;804;-58
2023/10/14 04:05:54;;;;;;;;;;;22.90;59.40;;;;;;1537606;75;1575;-59
2023/10/14 04:07:57;;;;;;;;;;;22.90;59.30;;;;;;1538073;75;1385;-58
2023/10/14 04:10:08;;;;;;;;;;;22.90;59.30;;;;;;1541167;75;1504;-58
2023/10/14 04:12:08;;;;;;;;;;;22.90;59.50;;;;;;1543271;75;1947;-58
2023/10/14 04:14:13;;;;;;;;;;;22.90;59.50;;;;;;1541717;75;1615;-59
2023/10/14 04:16:13;;;;;;;;;;;22.90;59.50;;;;;;1546574;75;1678;-59
2023/10/14 04:18:15;;;;;;;;;;;22.90;59.60;;;;;;1544251;75;691;-59
2023/10/14 04:20:22;;;;;;;;;;;23.00;59.50;;;;;;1541114;75;1181;-58
2023/10/14 04:26:36;;;;;;;;;;;22.90;59.60;;;;;;1541921;75;875;-59
2023/10/14 04:28:53;;;;;;;;;;;22.90;59.60;;;;;;1536911;75;668;-58
2023/10/14 04:30:44;;;;;;;;;;;22.90;59.50;;;;;;1538387;75;1621;-58
2023/10/14 04:34:54;;;;;;;;;;;22.90;59.60;;;;;;1545370;75;808;-59
2023/10/14 04:36:54;;;;;;;;;;;22.90;59.60;;;;;;1542968;75;973;-60
2023/10/14 04:39:05;;;;;;;;;;;23.00;59.50;;;;;;1540755;75;1654;-58
2023/10/14 04:41:03;;;;;;;;;;;22.90;59.90;;;;;;1542275;75;1822;-59
2023/10/14 04:45:30;;;;;;;;;;;22.90;59.60;;;;;;1538796;75;714;-60
2023/10/14 04:47:37;;;;;;;;;;;22.90;59.60;;;;;;1544709;75;1637;-60
2023/10/14 04:49:42;;;;;;;;;;;22.90;59.70;;;;;;1545764;75;714;-60
2023/10/14 04:51:48;;;;;;;;;;;22.90;59.70;;;;;;1542583;75;1937;-60
2023/10/14 04:53:50;;;;;;;;;;;22.90;59.70;;;;;;1542792;75;722;-60
2023/10/14 04:55:52;;;;;;;;;;;22.90;59.70;;;;;;1544817;75;793;-60
2023/10/14 04:58:11;;;;;;;;;;;22.90;59.60;;;;;;1545567;75;749;-61
2023/10/14 05:00:19;;;;;;;;;;;22.90;59.60;;;;;;1541322;75;1531;-60
2023/10/14 05:02:20;;;;;;;;;;;22.90;59.60;;;;;;1541156;75;1683;-60
2023/10/14 05:04:22;;;;;;;;;;;22.90;59.70;;;;;;1546099;75;1437;-60
2023/10/14 05:06:39;;;;;;;;;;;22.90;59.60;;;;;;1547520;75;1666;-60
2023/10/14 05:08:51;;;;;;;;;;;22.90;59.70;;;;;;1542256;75;1642;-59
2023/10/14 05:10:53;;;;;;;;;;;22.90;59.60;;;;;;1543898;75;1642;-60
2023/10/14 05:12:55;;;;;;;;;;;22.90;59.70;;;;;;1551771;75;1921;-60
2023/10/14 05:14:57;;;;;;;;;;;22.90;59.60;;;;;;1542765;75;734;-61
2023/10/14 05:17:05;;;;;;;;;;;22.90;59.60;;;;;;1541789;75;890;-60
2023/10/14 05:19:14;;;;;;;;;;;22.90;59.60;;;;;;1548246;75;941;-60
2023/10/14 05:21:35;;;;;;;;;;;22.90;59.70;;;;;;1538242;75;1728;-60
2023/10/14 05:23:24;;;;;;;;;;;22.90;59.70;;;;;;1539728;75;1528;-60
2023/10/14 05:25:27;;;;;;;;;;;22.90;59.50;;;;;;1540581;75;1669;-60
2023/10/14 05:27:45;;;;;;;;;;;22.90;59.60;;;;;;1544816;75;1498;-61
2023/10/14 05:29:29;;;;;;;;;;;22.90;59.70;;;;;;1540496;75;1601;-60
2023/10/14 05:31:33;;;;;;;;;;;22.90;59.70;;;;;;1538373;75;1940;-60
2023/10/14 05:33:35;;;;;;;;;;;22.90;59.70;;;;;;1531149;75;1866;-60
2023/10/14 05:35:38;;;;;;;;;;;22.90;59.80;;;;;;1541970;75;743;-61
2023/10/14 05:37:45;;;;;;;;;;;22.90;59.70;;;;;;1540817;75;1031;-60
2023/10/14 05:39:47;;;;;;;;;;;22.90;59.90;;;;;;1535483;75;683;-61
2023/10/14 05:41:49;;;;;;;;;;;22.90;59.80;;;;;;1542521;75;1145;-60
2023/10/14 05:43:51;;;;;;;;;;;22.90;59.80;;;;;;1549996;75;662;-60
2023/10/14 05:45:53;;;;;;;;;;;22.90;59.90;;;;;;1533608;75;806;-60
2023/10/14 05:47:54;;;;;;;;;;;22.90;59.90;;;;;;1538005;75;1667;-61
2023/10/14 05:49:56;;;;;;;;;;;22.90;59.70;;;;;;1543815;75;754;-60
2023/10/14 05:51:58;;;;;;;;;;;22.90;59.70;;;;;;1534466;75;1944;-60
2023/10/14 05:54:00;;;;;;;;;;;22.90;59.80;;;;;;1540929;75;768;-60
2023/10/14 05:56:14;;;;;;;;;;;22.90;59.90;;;;;;1536294;75;718;-60
2023/10/14 05:58:14;;;;;;;;;;;22.90;59.80;;;;;;1544328;75;1647;-60
2023/10/14 06:00:23;;;;;;;;;;;22.90;59.80;;;;;;1541859;75;1092;-60
2023/10/14 06:02:25;;;;;;;;;;;22.90;59.80;;;;;;1542234;75;1572;-60
2023/10/14 06:04:27;;;;;;;;;;;22.90;59.90;;;;;;1544028;75;731;-60
2023/10/14 06:06:31;;;;;;;;;;;22.90;59.90;;;;;;1536238;75;760;-60
2023/10/14 06:08:33;;;;;;;;;;;23.00;59.90;;;;;;1548325;75;1705;-60
2023/10/14 06:10:36;;;;;;;;;;;22.90;60.00;;;;;;1540312;75;1163;-60
2023/10/14 06:12:39;;;;;;;;;;;22.90;60.10;;;;;;1544995;75;1914;-60
2023/10/14 06:14:42;;;;;;;;;;;22.90;60.00;;;;;;1540051;75;775;-61
2023/10/14 06:16:44;;;;;;;;;;;22.90;60.00;;;;;;1536666;75;1847;-61
2023/10/14 06:18:51;;;;;;;;;;;23.00;60.10;;;;;;1537981;75;732;-60
2023/10/14 06:20:51;;;;;;;;;;;22.90;60.00;;;;;;1542075;75;1790;-60
2023/10/14 06:22:57;;;;;;;;;;;22.90;60.00;;;;;;1544783;75;800;-61
2023/10/14 06:24:56;;;;;;;;;;;22.90;60.10;;;;;;1539027;75;1964;-61
2023/10/14 06:27:08;;;;;;;;;;;23.00;60.10;;;;;;1544347;75;795;-62
2023/10/14 06:29:05;;;;;;;;;;;22.90;60.20;;;;;;1539097;75;1488;-62
2023/10/14 06:31:07;;;;;;;;;;;22.90;60.10;;;;;;1540538;75;1591;-60
2023/10/14 06:33:11;;;;;;;;;;;22.90;60.20;;;;;;1531705;75;1935;-61
2023/10/14 06:35:14;;;;;;;;;;;22.90;60.50;;;;;;1537647;75;1731;-60
2023/10/14 06:37:16;;;;;;;;;;;22.90;60.40;;;;;;1543648;75;1671;-60
2023/10/14 06:39:26;;;;;;;;;;;22.90;60.50;;;;;;1537531;75;611;-60
2023/10/14 06:41:23;;;;;;;;;;;22.90;60.50;;;;;;1540675;75;1635;-61
2023/10/14 06:43:33;;;;;;;;;;;22.90;60.50;;;;;;1546915;75;1656;-61
2023/10/14 06:45:31;;;;;;;;;;;23.00;60.50;;;;;;1543940;75;1646;-60
2023/10/14 06:47:32;;;;;;;;;;;23.00;60.50;;;;;;1546254;75;1642;-59
2023/10/14 06:49:36;;;;;;;;;;;23.00;60.60;;;;;;1544078;75;799;-60
2023/10/14 06:51:38;;;;;;;;;;;22.90;60.50;;;;;;1541304;75;1199;-61
2023/10/14 06:53:40;;;;;;;;;;;23.00;60.50;;;;;;1538103;75;1945;-61
2023/10/14 06:55:42;;;;;;;;;;;23.00;60.50;;;;;;1536499;75;939;-60
2023/10/14 06:57:47;;;;;;;;;;;23.00;60.80;;;;;;1547781;75;1543;-60
2023/10/14 06:59:47;;;;;;;;;;;23.00;60.70;;;;;;1548937;75;1530;-60
2023/10/14 07:01:49;;;;;;;;;;;23.00;60.60;;;;;;1541619;75;1141;-60
2023/10/14 07:03:52;;;;;;;;;;;23.00;60.60;;;;;;1543680;75;739;-60
2023/10/14 07:05:57;;;;;;;;;;;23.00;60.90;;;;;;1543639;75;738;-57
2023/10/14 07:07:59;;;;;;;;;;;23.00;61.00;;;;;;1544835;75;898;-59
2023/10/14 07:10:01;;;;;;;;;;;23.00;61.00;;;;;;1541814;75;710;-60
2023/10/14 07:12:13;;;;;;;;;;;23.00;60.80;;;;;;1546974;75;1947;-58
2023/10/14 07:14:08;;;;;;;;;;;23.00;61.00;;;;;;1535330;75;1757;-61
2023/10/14 07:16:11;;;;;;;;;;;23.00;60.90;;;;;;1537911;75;1976;-60
2023/10/14 07:18:23;;;;;;;;;;;23.00;60.80;;;;;;1544155;75;722;-58
2023/10/14 07:20:19;;;;;;;;;;;23.00;60.90;;;;;;1544393;75;1469;-59
2023/10/14 07:22:21;;;;;;;;;;;23.00;60.90;;;;;;1548185;75;815;-58
2023/10/14 07:24:23;;;;;;;;;;;23.00;60.70;;;;;;1546748;75;758;-59
2023/10/14 07:26:29;;;;;;;;;;;23.00;60.80;;;;;;1551958;75;1520;-58
2023/10/14 07:28:30;;;;;;;;;;;23.00;61.20;;;;;;1543835;75;1691;-60
2023/10/14 07:30:34;;;;;;;;;;;23.10;60.70;;;;;;1538361;75;1143;-59
2023/10/14 07:32:36;;;;;;;;;;;23.10;61.30;;;;;;1543395;75;1947;-60
2023/10/14 07:34:38;;;;;;;;;;;23.10;61.00;;;;;;1543045;75;695;-61
2023/10/14 07:36:40;;;;;;;;;;;23.10;60.20;;;;;;1538750;75;798;-60
2023/10/14 07:38:43;;;;;;;;;;;23.10;60.10;;;;;;1538566;75;786;-60
2023/10/14 07:40:46;;;;;;;;;;;23.10;60.50;;;;;;1543493;75;1541;-60
2023/10/14 07:42:52;;;;;;;;;;;23.10;59.50;;;;;;1542474;75;728;-60
2023/10/14 07:44:54;;;;;;;;;;;23.10;58.60;;;;;;1542815;75;1098;-61
2023/10/14 07:46:55;;;;;;;;;;;23.10;58.40;;;;;;1552631;75;1602;-61
2023/10/14 07:48:58;;;;;;;;;;;23.00;57.60;;;;;;1546112;75;804;-60
2023/10/14 07:51:02;;;;;;;;;;;23.00;57.20;;;;;;1540933;74;1161;-61
2023/10/14 07:53:13;;;;;;;;;;;23.00;57.00;;;;;;1537890;75;1917;-60
2023/10/14 07:55:22;;;;;;;;;;;23.00;56.50;;;;;;1541614;75;1598;-62
2023/10/14 07:57:21;;;;;;;;;;;23.00;56.70;;;;;;1542086;75;1389;-63
2023/10/14 07:59:23;;;;;;;;;;;23.00;56.80;;;;;;1546075;75;858;-63
2023/10/14 08:01:25;;;;;;;;;;;22.90;56.70;;;;;;1541192;75;1243;-63
2023/10/14 08:03:29;;;;;;;;;;;22.90;56.80;;;;;;1540551;75;782;-64
2023/10/14 08:05:31;;;;;;;;;;;22.90;56.60;;;;;;1540255;75;804;-63
2023/10/14 08:07:40;;;;;;;;;;;22.90;56.80;;;;;;1514895;77;1062;-63
2023/10/14 08:09:39;;;;;;;;;;;22.90;56.50;;;;;;1544361;75;1749;-63
2023/10/14 08:11:42;;;;;;;;;;;22.80;56.80;;;;;;1531607;75;1139;-63
2023/10/14 08:13:43;;;;;;;;;;;22.70;56.80;;;;;;1544037;75;1943;-62
2023/10/14 08:15:50;;;;;;;;;;;22.80;56.70;;;;;;1549340;75;744;-64
2023/10/14 08:17:49;;;;;;;;;;;22.80;56.50;;;;;;1543060;75;1585;-63
2023/10/14 08:19:51;;;;;;;;;;;22.80;56.60;;;;;;1552335;75;791;-64
2023/10/14 08:21:53;;;;;;;;;;;22.80;56.40;;;;;;1541042;75;1114;-63
2023/10/14 08:23:58;;;;;;;;;;;22.70;56.00;;;;;;1539546;75;1411;-63
2023/10/14 08:25:59;;;;;;;;;;;22.80;56.10;;;;;;1543550;75;1534;-61
2023/10/14 08:28:05;;;;;;;;;;;22.70;56.30;;;;;;1544843;75;727;-63
2023/10/14 08:30:16;;;;;;;;;;;22.70;55.80;;;;;;1538994;75;951;-63
2023/10/14 08:32:09;;;;;;;;;;;22.80;55.40;;;;;;1537338;75;1769;-62
2023/10/14 08:34:11;;;;;;;;;;;22.70;56.00;;;;;;1545065;75;1914;-62
2023/10/14 08:36:13;;;;;;;;;;;22.80;55.90;;;;;;1549271;75;1551;-63
2023/10/14 08:38:19;;;;;;;;;;;22.80;55.80;;;;;;1542882;75;764;-63
2023/10/14 08:40:19;;;;;;;;;;;22.70;55.60;;;;;;1535995;75;1198;-63
2023/10/14 08:42:23;;;;;;;;;;;22.80;55.50;;;;;;1542355;75;677;-62
2023/10/14 08:44:27;;;;;;;;;;;22.70;55.70;;;;;;1541783;75;831;-63
2023/10/14 08:46:35;;;;;;;;;;;22.70;55.20;;;;;;1541991;75;616;-62
2023/10/14 08:48:32;;;;;;;;;;;22.60;55.30;;;;;;1547389;75;1838;-62
2023/10/14 08:50:34;;;;;;;;;;;22.70;54.90;;;;;;1547731;75;1603;-62
2023/10/14 08:52:37;;;;;;;;;;;22.60;54.50;;;;;;1549135;75;1912;-62
2023/10/14 08:54:42;;;;;;;;;;;22.60;55.10;;;;;;1540342;75;745;-62
2023/10/14 08:56:43;;;;;;;;;;;22.60;54.90;;;;;;1541617;75;1698;-62
2023/10/14 08:58:45;;;;;;;;;;;22.70;55.10;;;;;;1539667;75;672;-61
2023/10/14 09:00:47;;;;;;;;;;;22.60;54.40;;;;;;1541359;75;1101;-62
2023/10/14 09:02:49;;;;;;;;;;;22.60;54.60;;;;;;1545379;75;782;-62
2023/10/14 09:04:51;;;;;;;;;;;22.60;54.80;;;;;;1542226;75;1588;-61
2023/10/14 09:06:53;;;;;;;;;;;22.60;54.70;;;;;;1535994;75;764;-62
2023/10/14 09:08:55;;;;;;;;;;;22.60;53.70;;;;;;1535594;75;736;-62
2023/10/14 09:10:56;;;;;;;;;;;22.60;54.10;;;;;;1548628;74;1157;-62
2023/10/14 09:12:59;;;;;;;;;;;22.60;54.10;;;;;;1541697;75;1919;-61
2023/10/14 09:15:01;;;;;;;;;;;22.60;54.20;;;;;;1541733;75;801;-62
2023/10/14 09:17:04;;;;;;;;;;;22.60;54.40;;;;;;1542323;75;749;-62
2023/10/14 09:19:07;;;;;;;;;;;22.60;54.40;;;;;;1535613;75;1403;-62
2023/10/14 09:21:09;;;;;;;;;;;22.60;54.20;;;;;;1535064;75;1249;-62
2023/10/14 09:23:18;;;;;;;;;;;22.60;54.20;;;;;;1547008;75;691;-60
2023/10/14 09:25:19;;;;;;;;;;;22.60;54.00;;;;;;1545489;75;714;-61
2023/10/14 09:27:22;;;;;;;;;;;22.60;53.50;;;;;;1537543;75;736;-62
2023/10/14 09:29:24;;;;;;;;;;;22.50;53.10;;;;;;1541189;75;768;-61
2023/10/14 09:31:25;;;;;;;;;;;22.60;53.40;;;;;;1539534;75;1180;-61
2023/10/14 09:33:28;;;;;;;;;;;22.50;53.60;;;;;;1543017;75;1936;-62
2023/10/14 09:35:30;;;;;;;;;;;22.50;53.50;;;;;;1537308;75;757;-61
2023/10/14 09:37:32;;;;;;;;;;;22.60;53.90;;;;;;1532498;75;862;-61
2023/10/14 09:39:34;;;;;;;;;;;22.50;53.40;;;;;;1540468;75;758;-61
2023/10/14 09:41:37;;;;;;;;;;;22.60;53.80;;;;;;1544065;75;1152;-62
2023/10/14 09:43:48;;;;;;;;;;;22.50;53.80;;;;;;1547588;75;698;-61
2023/10/14 09:45:51;;;;;;;;;;;22.50;53.70;;;;;;1541270;75;720;-61
2023/10/14 09:47:57;;;;;;;;;;;22.50;53.90;;;;;;1543185;75;2051;-61
2023/10/14 09:49:58;;;;;;;;;;;22.50;53.80;;;;;;1540101;75;1669;-59
2023/10/14 09:52:00;;;;;;;;;;;22.50;53.50;;;;;;1548330;75;1164;-60
2023/10/14 09:54:03;;;;;;;;;;;22.60;53.80;;;;;;1547061;75;1935;-60
2023/10/14 09:56:05;;;;;;;;;;;22.50;53.70;;;;;;1543071;75;744;-59
2023/10/14 09:58:08;;;;;;;;;;;22.50;53.20;;;;;;1542118;75;724;-59
2023/10/14 10:00:10;;;;;;;;;;;22.50;53.00;;;;;;1537992;75;1155;-60
2023/10/14 10:02:12;;;;;;;;;;;22.50;53.60;;;;;;1541711;75;1587;-61
2023/10/14 10:04:19;;;;;;;;;;;22.50;53.60;;;;;;1541973;75;736;-60
2023/10/14 10:06:43;;;;;;;;;;;22.50;53.80;;;;;;1547114;75;667;-60
2023/10/14 10:08:45;;;;;;;;;;;22.50;54.00;;;;;;1538685;75;1970;-60
2023/10/14 10:10:47;;;;;;;;;;;22.50;54.00;;;;;;1541347;74;1670;-61
2023/10/14 10:12:53;;;;;;;;;;;22.50;54.00;;;;;;1545848;75;768;-59
2023/10/14 10:15:01;;;;;;;;;;;22.50;54.10;;;;;;1539355;75;1939;-59
2023/10/14 10:17:08;;;;;;;;;;;22.50;54.20;;;;;;1544419;75;868;-59
2023/10/14 10:19:08;;;;;;;;;;;22.50;54.20;;;;;;1534339;76;1523;-60
2023/10/14 10:21:10;;;;;;;;;;;22.50;54.20;;;;;;1538879;75;1217;-58
2023/10/14 10:23:14;;;;;;;;;;;22.50;54.20;;;;;;1544105;75;681;-61
2023/10/14 10:25:16;;;;;;;;;;;22.50;54.40;;;;;;1537974;75;1646;-59
2023/10/14 10:27:18;;;;;;;;;;;22.60;54.50;;;;;;1543288;75;764;-60
2023/10/14 10:29:25;;;;;;;;;;;22.60;54.50;;;;;;1538691;75;1553;-60
2023/10/14 10:31:24;;;;;;;;;;;22.50;54.50;;;;;;1538523;75;1237;-60
2023/10/14 10:33:49;;;;;;;;;;;22.50;54.60;;;;;;1538673;75;1915;-60
2023/10/14 10:35:57;;;;;;;;;;;22.60;54.60;;;;;;1540211;75;758;-59
2023/10/14 10:37:59;;;;;;;;;;;22.60;54.50;;;;;;1543658;75;819;-60
2023/10/14 10:40:10;;;;;;;;;;;22.60;54.50;;;;;;1516097;77;736;-61
2023/10/14 10:42:06;;;;;;;;;;;22.60;54.60;;;;;;1535627;75;1780;-60
2023/10/14 10:44:13;;;;;;;;;;;22.60;54.80;;;;;;1505841;77;1606;-60
2023/10/14 10:46:30;;;;;;;;;;;22.60;54.70;;;;;;1546563;75;1224;-60
2023/10/14 10:48:33;;;;;;;;;;;22.60;54.90;;;;;;1541692;75;979;-60
2023/10/14 10:50:38;;;;;;;;;;;22.60;54.70;;;;;;1541508;75;1717;-62
2023/10/14 10:52:41;;;;;;;;;;;22.60;54.70;;;;;;1543011;75;738;-61
2023/10/14 10:54:43;;;;;;;;;;;22.70;55.40;;;;;;1546701;75;1920;-59
2023/10/14 10:56:45;;;;;;;;;;;22.70;55.50;;;;;;1548745;75;1593;-59
2023/10/14 10:58:47;;;;;;;;;;;22.80;55.60;;;;;;1540311;75;767;-61
2023/10/14 11:00:49;;;;;;;;;;;22.80;55.80;;;;;;1540307;75;1132;-60
2023/10/14 11:02:54;;;;;;;;;;;22.90;56.00;;;;;;1536897;75;692;-60
2023/10/14 11:04:55;;;;;;;;;;;22.90;56.00;;;;;;1551635;75;708;-58
2023/10/14 11:06:57;;;;;;;;;;;22.90;56.30;;;;;;1548877;75;677;-59
2023/10/14 11:08:59;;;;;;;;;;;22.90;56.30;;;;;;1554941;75;690;-60
2023/10/14 11:11:01;;;;;;;;;;;22.90;56.00;;;;;;1550907;75;1453;-59
2023/10/14 11:13:03;;;;;;;;;;;22.90;56.00;;;;;;1556303;75;770;-59
2023/10/14 11:15:07;;;;;;;;;;;22.90;56.10;;;;;;1551870;75;1947;-59
2023/10/14 11:17:09;;;;;;;;;;;22.90;56.10;;;;;;1562260;75;1095;-59
2023/10/14 11:19:11;;;;;;;;;;;22.90;56.10;;;;;;1552379;75;744;-59
2023/10/14 11:21:14;;;;;;;;;;;22.90;56.10;;;;;;1552013;75;1154;-60
2023/10/14 11:23:17;;;;;;;;;;;22.90;56.00;;;;;;1551024;75;786;-60
2023/10/14 11:25:19;;;;;;;;;;;22.90;56.00;;;;;;1547514;75;1593;-60
2023/10/14 11:27:23;;;;;;;;;;;22.90;56.00;;;;;;1553745;75;764;-59
2023/10/14 11:29:25;;;;;;;;;;;22.90;55.90;;;;;;1547877;75;1499;-58
2023/10/14 11:31:27;;;;;;;;;;;22.80;55.80;;;;;;1557308;75;1161;-61
2023/10/14 11:33:29;;;;;;;;;;;22.80;55.90;;;;;;1548101;75;1930;-60
2023/10/14 11:35:31;;;;;;;;;;;22.90;56.10;;;;;;1520661;77;1271;-61
2023/10/14 11:37:36;;;;;;;;;;;22.90;56.00;;;;;;1553995;75;706;-60
2023/10/14 11:39:36;;;;;;;;;;;22.90;56.00;;;;;;1549816;75;1600;-62
2023/10/14 11:41:38;;;;;;;;;;;22.90;56.00;;;;;;1546948;75;1118;-61
2023/10/14 11:43:44;;;;;;;;;;;22.90;55.40;;;;;;1547642;75;758;-61
2023/10/14 11:45:46;;;;;;;;;;;22.90;55.90;;;;;;1548900;75;753;-60
2023/10/14 11:47:48;;;;;;;;;;;22.90;55.10;;;;;;1560437;75;758;-61
2023/10/14 11:49:50;;;;;;;;;;;22.90;55.20;;;;;;1547668;75;655;-61
2023/10/14 11:51:52;;;;;;;;;;;22.90;55.50;;;;;;1547138;75;1167;-61
2023/10/14 11:53:54;;;;;;;;;;;22.80;55.80;;;;;;1521614;77;1925;-62
2023/10/14 11:56:00;;;;;;;;;;;22.90;56.10;;;;;;1519624;77;790;-61
2023/10/14 11:58:04;;;;;;;;;;;22.90;56.40;;;;;;1547429;75;914;-61
2023/10/14 12:00:10;;;;;;;;;;;22.90;56.30;;;;;;1554654;75;1555;-61
2023/10/14 12:02:10;;;;;;;;;;;22.90;56.30;;;;;;1552200;75;1503;-61
2023/10/14 12:04:11;;;;;;;;;;;22.90;56.40;;;;;;1553273;75;676;-61
2023/10/14 12:06:14;;;;;;;;;;;22.90;56.40;;;;;;1561713;75;724;-61
2023/10/14 12:08:20;;;;;;;;;;;22.90;56.50;;;;;;1554889;75;1480;-61
2023/10/14 12:10:25;;;;;;;;;;;22.90;56.50;;;;;;1547776;75;1536;-61
2023/10/14 12:12:24;;;;;;;;;;;22.90;56.50;;;;;;1545516;75;1641;-61
2023/10/14 12:14:27;;;;;;;;;;;22.90;56.50;;;;;;1551954;75;1916;-61
2023/10/14 12:16:29;;;;;;;;;;;22.80;56.50;;;;;;1550975;75;772;-61
2023/10/14 12:18:35;;;;;;;;;;;22.90;56.60;;;;;;1553594;75;1436;-61
2023/10/14 12:20:37;;;;;;;;;;;22.80;56.40;;;;;;1550335;75;1164;-61
2023/10/14 12:22:40;;;;;;;;;;;22.90;56.50;;;;;;1554725;75;1612;-61
2023/10/14 12:24:42;;;;;;;;;;;22.80;56.50;;;;;;1547264;75;705;-61
2023/10/14 12:26:49;;;;;;;;;;;22.80;56.50;;;;;;1559171;75;779;-61
2023/10/14 12:28:50;;;;;;;;;;;22.90;56.60;;;;;;1547742;75;1680;-61
2023/10/14 12:30:53;;;;;;;;;;;22.80;56.40;;;;;;1553223;75;1141;-61